Time;durP1;ratioP1;P1;durP2;ratioP2;P2;SDS_P1;SDS_P2;PMS_P1;PMS_P2;Temp;Humidity;BMP_temperature;BMP_pressure;BME280_temperature;BME280_humidity;BME280_pressure;Samples;Min_cycle;Max_cycle;Signal;HPM_P1;HPM_P2
2022/03/26 00:00:39;;;;;;;21.97;16.97;;;;;;;;;;5086064;28;20186;-55
2022/03/26 00:03:05;;;;;;;21.53;18.30;;;;;;;;;;5067899;28;20610;-55
2022/03/26 00:05:31;;;;;;;21.73;16.90;;;;;;;;;;5087809;28;20198;-55
2022/03/26 00:07:57;;;;;;;22.60;17.00;;;;;;;;;;5087896;28;20172;-55
2022/03/26 00:10:23;;;;;;;23.37;18.20;;;;;;;;;;5077815;28;20191;-55
2022/03/26 00:12:52;;;;;;;21.43;18.33;;;;;;;;;;5094228;28;20186;-55
2022/03/26 00:15:19;;;;;;;26.30;20.17;;;;;;;;;;5088793;28;20219;-55
2022/03/26 00:17:45;;;;;;;22.13;17.60;;;;;;;;;;5087191;28;20187;-55
2022/03/26 00:20:12;;;;;;;24.70;19.13;;;;;;;;;;5070265;28;20178;-55
2022/03/26 00:22:38;;;;;;;22.93;16.47;;;;;;;;;;5086675;28;20542;-56
2022/03/26 00:25:05;;;;;;;25.57;18.23;;;;;;;;;;5086655;28;20184;-54
2022/03/26 00:27:31;;;;;;;27.63;19.77;;;;;;;;;;5069818;28;20189;-55
2022/03/26 00:29:58;;;;;;;23.93;17.67;;;;;;;;;;5093061;28;20191;-56
2022/03/26 00:32:24;;;;;;;26.93;19.63;;;;;;;;;;5097419;28;20365;-55
2022/03/26 00:34:50;;;;;;;24.53;19.40;;;;;;;;;;5084140;28;20236;-57
2022/03/26 00:37:16;;;;;;;26.03;18.53;;;;;;;;;;5087312;28;20187;-56
2022/03/26 00:39:43;;;;;;;23.43;17.63;;;;;;;;;;5086816;28;20233;-55
2022/03/26 00:42:09;;;;;;;25.83;18.97;;;;;;;;;;5086472;28;20647;-55
2022/03/26 00:44:37;;;;;;;25.87;18.37;;;;;;;;;;5086145;28;20556;-56
2022/03/26 00:47:04;;;;;;;25.20;19.27;;;;;;;;;;5088667;28;20183;-55
2022/03/26 00:49:30;;;;;;;25.73;19.10;;;;;;;;;;5088510;28;20187;-55
2022/03/26 00:51:56;;;;;;;23.17;17.30;;;;;;;;;;5086979;28;20696;-54
2022/03/26 00:54:23;;;;;;;21.27;17.40;;;;;;;;;;5091483;28;20674;-54
2022/03/26 00:56:49;;;;;;;22.67;18.53;;;;;;;;;;5073222;28;20222;-56
2022/03/26 00:59:15;;;;;;;25.20;17.90;;;;;;;;;;5090338;28;20176;-55
2022/03/26 01:01:41;;;;;;;25.97;19.07;;;;;;;;;;5072918;28;20187;-54
2022/03/26 01:04:08;;;;;;;25.10;19.33;;;;;;;;;;5088450;28;20199;-56
2022/03/26 01:06:34;;;;;;;23.43;17.73;;;;;;;;;;5088146;28;20637;-54
2022/03/26 01:09:01;;;;;;;26.03;19.23;;;;;;;;;;5073086;28;20195;-56
2022/03/26 01:11:27;;;;;;;24.93;19.40;;;;;;;;;;5084398;28;20575;-55
2022/03/26 01:13:56;;;;;;;23.57;18.57;;;;;;;;;;5090821;28;20211;-55
2022/03/26 01:16:25;;;;;;;23.43;18.43;;;;;;;;;;5092179;28;20742;-56
2022/03/26 01:18:52;;;;;;;27.37;19.47;;;;;;;;;;5071469;28;20213;-55
2022/03/26 01:21:19;;;;;;;21.33;18.07;;;;;;;;;;5073924;28;20240;-56
2022/03/26 01:23:46;;;;;;;25.40;19.20;;;;;;;;;;5090668;28;20199;-56
2022/03/26 01:26:13;;;;;;;23.43;18.97;;;;;;;;;;5088120;28;20665;-55
2022/03/26 01:28:39;;;;;;;25.77;19.40;;;;;;;;;;5088167;28;20192;-57
2022/03/26 01:31:06;;;;;;;24.57;19.30;;;;;;;;;;5073952;28;20638;-56
2022/03/26 01:33:32;;;;;;;25.77;19.60;;;;;;;;;;5083028;28;20551;-55
2022/03/26 01:35:58;;;;;;;22.80;18.90;;;;;;;;;;5072429;28;20230;-57
2022/03/26 01:38:25;;;;;;;23.17;19.40;;;;;;;;;;5065534;28;20180;-55
2022/03/26 01:40:52;;;;;;;24.67;19.17;;;;;;;;;;5089412;28;20554;-56
2022/03/26 01:43:18;;;;;;;24.80;18.63;;;;;;;;;;5084186;28;20690;-54
2022/03/26 01:45:44;;;;;;;25.53;19.47;;;;;;;;;;5075469;28;20179;-54
2022/03/26 01:48:11;;;;;;;27.20;20.00;;;;;;;;;;5069804;28;20186;-56
2022/03/26 01:50:39;;;;;;;23.93;19.33;;;;;;;;;;5070861;28;20188;-55
2022/03/26 01:53:05;;;;;;;23.00;18.83;;;;;;;;;;5086988;28;20694;-55
2022/03/26 01:55:31;;;;;;;24.02;21.40;;;;;;;;;;5079313;28;20428;-55
2022/03/26 01:57:57;;;;;;;22.07;19.40;;;;;;;;;;5091633;28;20199;-55
2022/03/26 02:00:24;;;;;;;22.40;18.73;;;;;;;;;;5071765;28;20632;-55
2022/03/26 02:02:50;;;;;;;23.07;19.27;;;;;;;;;;5070581;28;20203;-54
2022/03/26 02:05:19;;;;;;;24.97;18.53;;;;;;;;;;5071573;28;20536;-55
2022/03/26 02:07:46;;;;;;;25.97;18.90;;;;;;;;;;5071400;28;20206;-55
2022/03/26 02:10:14;;;;;;;23.87;19.07;;;;;;;;;;5072488;28;20640;-55
2022/03/26 02:12:41;;;;;;;23.30;18.43;;;;;;;;;;5072561;28;20255;-54
2022/03/26 02:15:08;;;;;;;22.10;17.93;;;;;;;;;;5069715;28;20216;-55
2022/03/26 02:17:35;;;;;;;22.10;17.83;;;;;;;;;;5089946;28;20195;-56
2022/03/26 02:20:02;;;;;;;23.93;18.23;;;;;;;;;;5088334;28;20440;-55
2022/03/26 02:22:29;;;;;;;23.60;18.90;;;;;;;;;;5085077;28;20642;-55
2022/03/26 02:24:55;;;;;;;26.40;18.93;;;;;;;;;;5093504;28;20171;-55
2022/03/26 02:27:22;;;;;;;20.20;17.80;;;;;;;;;;5071236;28;20218;-55
2022/03/26 02:29:48;;;;;;;26.97;19.60;;;;;;;;;;5088196;28;20708;-55
2022/03/26 02:32:14;;;;;;;24.63;18.67;;;;;;;;;;5070581;28;20618;-55
2022/03/26 02:34:40;;;;;;;28.47;20.30;;;;;;;;;;5088037;28;20662;-55
2022/03/26 02:37:07;;;;;;;25.97;18.50;;;;;;;;;;5088123;28;20199;-57
2022/03/26 02:39:33;;;;;;;23.03;18.20;;;;;;;;;;5084552;28;20205;-55
2022/03/26 02:41:59;;;;;;;24.40;18.40;;;;;;;;;;5085466;28;20175;-54
2022/03/26 02:44:25;;;;;;;22.17;17.67;;;;;;;;;;5088999;28;20168;-55
2022/03/26 02:46:52;;;;;;;22.57;18.23;;;;;;;;;;5069826;28;20196;-56
2022/03/26 02:49:18;;;;;;;22.60;18.23;;;;;;;;;;5069455;28;20237;-56
2022/03/26 02:51:44;;;;;;;22.60;18.33;;;;;;;;;;5067167;28;20195;-55
2022/03/26 02:54:18;;;;;;;23.87;18.23;;;;;;;;;;5070165;28;20195;-55
2022/03/26 02:56:46;;;;;;;25.33;18.90;;;;;;;;;;5060534;28;20226;-54
2022/03/26 02:59:12;;;;;;;25.40;19.47;;;;;;;;;;5084905;28;20581;-55
2022/03/26 03:01:39;;;;;;;21.07;18.03;;;;;;;;;;5077301;28;20184;-55
2022/03/26 03:04:05;;;;;;;24.70;18.70;;;;;;;;;;5072306;28;20184;-55
2022/03/26 03:06:32;;;;;;;23.23;18.10;;;;;;;;;;5065284;28;20189;-56
2022/03/26 03:08:58;;;;;;;26.67;19.50;;;;;;;;;;5067542;28;20191;-55
2022/03/26 03:11:25;;;;;;;26.93;18.73;;;;;;;;;;5069639;28;20188;-55
2022/03/26 03:13:51;;;;;;;20.23;17.27;;;;;;;;;;5080545;28;20856;-54
2022/03/26 03:16:17;;;;;;;25.27;18.67;;;;;;;;;;5081681;28;20208;-57
2022/03/26 03:18:44;;;;;;;23.17;18.47;;;;;;;;;;5069157;28;20191;-56
2022/03/26 03:21:10;;;;;;;24.57;17.07;;;;;;;;;;5070417;28;20310;-55
2022/03/26 03:23:36;;;;;;;28.03;19.23;;;;;;;;;;5070346;28;20274;-55
2022/03/26 03:26:02;;;;;;;22.77;18.00;;;;;;;;;;5088541;28;20220;-56
2022/03/26 03:28:29;;;;;;;21.47;18.63;;;;;;;;;;5070773;28;20663;-55
2022/03/26 03:30:55;;;;;;;21.40;17.93;;;;;;;;;;5087419;28;20188;-55
2022/03/26 03:33:21;;;;;;;23.23;17.27;;;;;;;;;;5087140;28;20230;-56
2022/03/26 03:35:48;;;;;;;23.80;17.87;;;;;;;;;;5069992;28;20219;-56
2022/03/26 03:38:14;;;;;;;25.43;19.20;;;;;;;;;;5087745;28;20192;-55
2022/03/26 03:40:40;;;;;;;25.57;19.17;;;;;;;;;;5070136;28;20195;-56
2022/03/26 03:43:07;;;;;;;22.03;18.33;;;;;;;;;;5089339;28;20530;-55
2022/03/26 03:45:34;;;;;;;24.67;18.63;;;;;;;;;;5074847;28;20188;-56
2022/03/26 03:48:00;;;;;;;23.80;18.27;;;;;;;;;;5069014;28;20179;-56
2022/03/26 03:50:27;;;;;;;21.73;18.10;;;;;;;;;;5070260;28;20179;-55
2022/03/26 03:52:53;;;;;;;26.30;18.07;;;;;;;;;;5069829;28;20247;-57
2022/03/26 03:55:19;;;;;;;22.77;18.03;;;;;;;;;;5085362;28;20187;-55
2022/03/26 03:57:46;;;;;;;27.03;18.57;;;;;;;;;;5068547;28;20252;-55
2022/03/26 04:00:13;;;;;;;22.30;17.93;;;;;;;;;;5089724;28;20190;-57
2022/03/26 04:02:39;;;;;;;27.40;18.03;;;;;;;;;;5069604;28;20542;-56
2022/03/26 04:05:09;;;;;;;27.13;18.50;;;;;;;;;;5088459;28;20179;-55
2022/03/26 04:07:37;;;;;;;22.73;17.60;;;;;;;;;;5069460;28;20543;-55
2022/03/26 04:10:04;;;;;;;22.97;18.93;;;;;;;;;;5070516;28;20605;-55
2022/03/26 04:12:30;;;;;;;26.53;19.13;;;;;;;;;;5062608;28;20528;-55
2022/03/26 04:14:57;;;;;;;25.83;19.67;;;;;;;;;;5070117;28;20747;-54
2022/03/26 04:17:23;;;;;;;23.73;17.97;;;;;;;;;;5068699;28;20200;-56
2022/03/26 04:19:49;;;;;;;23.77;18.83;;;;;;;;;;5069169;28;20179;-56
2022/03/26 04:22:15;;;;;;;25.10;18.47;;;;;;;;;;5069486;28;20176;-55
2022/03/26 04:24:41;;;;;;;24.30;18.80;;;;;;;;;;5087353;28;20221;-55
2022/03/26 04:27:08;;;;;;;23.73;18.43;;;;;;;;;;5080452;28;20525;-55
2022/03/26 04:29:34;;;;;;;23.67;18.23;;;;;;;;;;5070232;28;20220;-56
2022/03/26 04:32:01;;;;;;;22.80;18.63;;;;;;;;;;5069310;28;20187;-55
2022/03/26 04:34:27;;;;;;;23.80;17.63;;;;;;;;;;5086995;28;20726;-55
2022/03/26 04:36:54;;;;;;;23.27;17.87;;;;;;;;;;5072080;28;20198;-57
2022/03/26 04:39:20;;;;;;;24.27;17.60;;;;;;;;;;5071161;28;20179;-56
2022/03/26 04:41:47;;;;;;;23.30;16.90;;;;;;;;;;5087045;28;20191;-56
2022/03/26 04:44:13;;;;;;;23.90;18.43;;;;;;;;;;5088043;28;20183;-56
2022/03/26 04:46:39;;;;;;;26.17;19.03;;;;;;;;;;5077940;28;20199;-57
2022/03/26 04:49:06;;;;;;;23.47;17.67;;;;;;;;;;5087019;28;20180;-56
2022/03/26 04:51:32;;;;;;;23.50;17.43;;;;;;;;;;5087342;28;20575;-56
2022/03/26 04:53:58;;;;;;;25.90;19.13;;;;;;;;;;5086339;28;20258;-54
2022/03/26 04:56:24;;;;;;;22.87;17.07;;;;;;;;;;5085579;28;20245;-56
2022/03/26 04:58:51;;;;;;;23.73;18.30;;;;;;;;;;5087611;28;20183;-55
2022/03/26 05:01:18;;;;;;;24.97;17.80;;;;;;;;;;5088622;28;20188;-55
2022/03/26 05:03:44;;;;;;;26.60;19.80;;;;;;;;;;5086415;28;20176;-55
2022/03/26 05:06:11;;;;;;;22.80;18.70;;;;;;;;;;5069920;28;20634;-55
2022/03/26 05:08:37;;;;;;;25.43;18.47;;;;;;;;;;5086716;28;20318;-56
2022/03/26 05:11:05;;;;;;;22.67;18.20;;;;;;;;;;5070155;28;20650;-54
2022/03/26 05:13:31;;;;;;;21.93;17.67;;;;;;;;;;5067531;28;20558;-54
2022/03/26 05:15:57;;;;;;;21.90;17.90;;;;;;;;;;5081193;28;20666;-55
2022/03/26 05:18:24;;;;;;;23.60;18.13;;;;;;;;;;5067577;28;20283;-55
2022/03/26 05:20:50;;;;;;;22.67;17.73;;;;;;;;;;5088121;28;20251;-55
2022/03/26 05:23:16;;;;;;;27.67;19.63;;;;;;;;;;5066128;28;20198;-54
2022/03/26 05:25:42;;;;;;;22.00;17.57;;;;;;;;;;5087033;28;20695;-54
2022/03/26 05:28:09;;;;;;;25.57;17.60;;;;;;;;;;5086217;28;20188;-54
2022/03/26 05:30:35;;;;;;;25.00;18.27;;;;;;;;;;5093856;28;20188;-55
2022/03/26 05:33:01;;;;;;;21.93;17.87;;;;;;;;;;5080231;28;20223;-55
2022/03/26 05:35:28;;;;;;;23.73;18.60;;;;;;;;;;5087688;28;20262;-54
2022/03/26 05:37:54;;;;;;;22.27;17.40;;;;;;;;;;5091004;28;21094;-53
2022/03/26 05:40:22;;;;;;;21.87;16.70;;;;;;;;;;5091476;28;20225;-55
2022/03/26 05:42:49;;;;;;;23.13;17.67;;;;;;;;;;5055679;28;20677;-54
2022/03/26 05:45:15;;;;;;;23.33;17.20;;;;;;;;;;5070117;28;20589;-56
2022/03/26 05:47:42;;;;;;;23.00;17.27;;;;;;;;;;5069962;28;20192;-55
2022/03/26 05:50:10;;;;;;;22.20;17.20;;;;;;;;;;5071723;28;20184;-55
2022/03/26 05:52:36;;;;;;;24.53;18.40;;;;;;;;;;5073503;28;20194;-55
2022/03/26 05:55:02;;;;;;;21.47;17.73;;;;;;;;;;5090932;28;20180;-55
2022/03/26 05:57:29;;;;;;;22.87;16.93;;;;;;;;;;5085510;28;20624;-55
2022/03/26 05:59:55;;;;;;;22.77;17.90;;;;;;;;;;5068109;28;20191;-55
2022/03/26 06:02:21;;;;;;;23.43;18.77;;;;;;;;;;5071003;28;20237;-57
2022/03/26 06:04:47;;;;;;;19.93;17.53;;;;;;;;;;5087160;28;20180;-56
2022/03/26 06:07:14;;;;;;;24.47;18.87;;;;;;;;;;5089255;28;20175;-56
2022/03/26 06:09:40;;;;;;;21.70;17.43;;;;;;;;;;5088662;28;20184;-56
2022/03/26 06:12:07;;;;;;;23.83;17.50;;;;;;;;;;5089759;28;20577;-54
2022/03/26 06:14:34;;;;;;;22.00;17.70;;;;;;;;;;5091044;28;20242;-55
2022/03/26 06:17:00;;;;;;;22.70;18.03;;;;;;;;;;5087648;28;20387;-56
2022/03/26 06:19:27;;;;;;;22.37;17.57;;;;;;;;;;5088335;28;20183;-55
2022/03/26 06:21:54;;;;;;;19.90;16.53;;;;;;;;;;5088996;28;20365;-55
2022/03/26 06:24:20;;;;;;;24.83;17.47;;;;;;;;;;5086583;28;20207;-56
2022/03/26 06:26:48;;;;;;;24.77;17.90;;;;;;;;;;5088539;28;20195;-55
2022/03/26 06:29:14;;;;;;;25.07;17.00;;;;;;;;;;5087547;28;20202;-56
2022/03/26 06:31:41;;;;;;;25.10;18.07;;;;;;;;;;5090789;28;20179;-55
2022/03/26 06:34:08;;;;;;;22.67;16.53;;;;;;;;;;5063994;28;20226;-55
2022/03/26 06:36:34;;;;;;;23.83;17.57;;;;;;;;;;5070267;28;20192;-57
2022/03/26 06:39:01;;;;;;;20.87;16.27;;;;;;;;;;5088852;28;20182;-55
2022/03/26 06:41:27;;;;;;;25.00;18.13;;;;;;;;;;5069923;28;20221;-55
2022/03/26 06:43:53;;;;;;;27.60;18.03;;;;;;;;;;5089350;28;20210;-56
2022/03/26 06:46:20;;;;;;;22.73;17.13;;;;;;;;;;5085429;28;20180;-55
2022/03/26 06:48:46;;;;;;;23.67;17.17;;;;;;;;;;5088274;28;20183;-56
2022/03/26 06:51:13;;;;;;;23.63;18.27;;;;;;;;;;5085946;28;20564;-57
2022/03/26 06:53:39;;;;;;;23.97;17.30;;;;;;;;;;5064618;28;20589;-56
2022/03/26 06:56:06;;;;;;;24.43;17.77;;;;;;;;;;5064751;28;20678;-55
2022/03/26 06:58:33;;;;;;;21.50;16.40;;;;;;;;;;5071472;28;20249;-54
2022/03/26 07:00:59;;;;;;;24.50;18.87;;;;;;;;;;5052238;28;20188;-55
2022/03/26 07:03:26;;;;;;;24.50;18.70;;;;;;;;;;5085241;28;20180;-55
2022/03/26 07:05:52;;;;;;;22.33;17.17;;;;;;;;;;5070258;28;20546;-55
2022/03/26 07:08:19;;;;;;;24.73;19.03;;;;;;;;;;5069334;28;20176;-54
2022/03/26 07:10:46;;;;;;;21.07;17.10;;;;;;;;;;5071024;28;20180;-54
2022/03/26 07:13:13;;;;;;;22.97;17.13;;;;;;;;;;5084716;28;20219;-54
2022/03/26 07:15:39;;;;;;;20.87;16.40;;;;;;;;;;5076850;28;20220;-54
2022/03/26 07:18:05;;;;;;;21.93;17.97;;;;;;;;;;5094196;28;20244;-55
2022/03/26 07:20:32;;;;;;;21.60;16.00;;;;;;;;;;5073894;28;20198;-55
2022/03/26 07:22:58;;;;;;;22.27;17.23;;;;;;;;;;5068833;28;20203;-54
2022/03/26 07:25:29;;;;;;;25.97;17.43;;;;;;;;;;5071211;28;20222;-54
2022/03/26 07:27:56;;;;;;;23.03;17.07;;;;;;;;;;5077953;28;20265;-54
2022/03/26 07:30:22;;;;;;;21.40;16.80;;;;;;;;;;5095111;28;20184;-57
2022/03/26 07:32:48;;;;;;;25.60;17.63;;;;;;;;;;5091714;28;20721;-55
2022/03/26 07:35:14;;;;;;;20.00;15.73;;;;;;;;;;5073139;28;20650;-58
2022/03/26 07:37:41;;;;;;;20.67;16.57;;;;;;;;;;5085745;28;20319;-56
2022/03/26 07:40:07;;;;;;;22.60;16.73;;;;;;;;;;5083891;28;20182;-55
2022/03/26 07:42:34;;;;;;;23.80;17.93;;;;;;;;;;5060474;28;20575;-55
2022/03/26 07:45:00;;;;;;;23.00;17.83;;;;;;;;;;5081522;28;20543;-56
2022/03/26 07:47:27;;;;;;;21.90;15.83;;;;;;;;;;5087475;28;20520;-55
2022/03/26 07:49:53;;;;;;;20.07;16.17;;;;;;;;;;5083268;28;20643;-55
2022/03/26 07:52:19;;;;;;;24.83;17.70;;;;;;;;;;5080266;28;20540;-56
2022/03/26 07:54:45;;;;;;;25.40;18.63;;;;;;;;;;5064314;28;20188;-55
2022/03/26 07:57:11;;;;;;;22.93;18.47;;;;;;;;;;5081696;28;20211;-55
2022/03/26 07:59:38;;;;;;;23.27;18.10;;;;;;;;;;5077085;28;20236;-55
2022/03/26 08:02:05;;;;;;;27.40;19.70;;;;;;;;;;5068081;28;20676;-54
2022/03/26 08:04:31;;;;;;;26.27;18.93;;;;;;;;;;5087123;28;20430;-54
2022/03/26 08:06:57;;;;;;;22.73;18.43;;;;;;;;;;5068429;28;20211;-56
2022/03/26 08:09:23;;;;;;;25.63;18.83;;;;;;;;;;5086192;28;20183;-59
2022/03/26 08:11:50;;;;;;;23.57;17.50;;;;;;;;;;5067622;28;20672;-55
2022/03/26 08:14:16;;;;;;;24.87;18.20;;;;;;;;;;5087823;28;20223;-56
2022/03/26 08:16:42;;;;;;;26.97;19.47;;;;;;;;;;5084233;28;20207;-56
2022/03/26 08:19:08;;;;;;;22.90;17.93;;;;;;;;;;5079775;28;20183;-56
2022/03/26 08:21:35;;;;;;;26.77;18.17;;;;;;;;;;5051792;28;20210;-55
2022/03/26 08:24:02;;;;;;;24.37;17.60;;;;;;;;;;5088329;28;20286;-55
2022/03/26 08:26:32;;;;;;;24.87;17.27;;;;;;;;;;5046638;28;20583;-57
2022/03/26 08:29:00;;;;;;;26.43;18.47;;;;;;;;;;5069733;28;20184;-55
2022/03/26 08:31:27;;;;;;;25.37;18.87;;;;;;;;;;5065879;28;20231;-56
2022/03/26 08:33:54;;;;;;;21.83;18.27;;;;;;;;;;5068141;28;20218;-55
2022/03/26 08:36:20;;;;;;;26.47;19.43;;;;;;;;;;5068876;28;20697;-55
2022/03/26 08:38:47;;;;;;;26.60;19.73;;;;;;;;;;5087214;28;20520;-55
2022/03/26 08:41:14;;;;;;;26.10;18.37;;;;;;;;;;5083250;28;20681;-56
2022/03/26 08:43:40;;;;;;;22.93;17.40;;;;;;;;;;5068441;28;20179;-55
2022/03/26 08:46:06;;;;;;;27.40;17.87;;;;;;;;;;5068994;28;20179;-56
2022/03/26 08:48:32;;;;;;;22.07;17.47;;;;;;;;;;5086133;28;20658;-56
2022/03/26 08:50:59;;;;;;;22.83;17.53;;;;;;;;;;5094624;28;20194;-56
2022/03/26 08:53:25;;;;;;;23.97;17.90;;;;;;;;;;5082860;28;20204;-61
2022/03/26 08:55:52;;;;;;;32.37;19.97;;;;;;;;;;5086211;28;20180;-58
2022/03/26 08:58:18;;;;;;;29.63;20.80;;;;;;;;;;5081059;28;20684;-60
2022/03/26 09:00:47;;;;;;;30.63;20.53;;;;;;;;;;5084926;28;20194;-60
2022/03/26 09:03:13;;;;;;;29.43;20.00;;;;;;;;;;5070685;28;20191;-60
2022/03/26 09:05:40;;;;;;;31.47;20.67;;;;;;;;;;5085969;28;20188;-59
2022/03/26 09:08:07;;;;;;;28.63;19.87;;;;;;;;;;5071193;28;20586;-59
2022/03/26 09:10:33;;;;;;;29.77;20.40;;;;;;;;;;5061892;28;20191;-58
2022/03/26 09:12:59;;;;;;;30.30;19.93;;;;;;;;;;5088267;28;20259;-59
2022/03/26 09:15:26;;;;;;;27.33;21.13;;;;;;;;;;5091349;28;20235;-58
2022/03/26 09:17:52;;;;;;;26.83;20.00;;;;;;;;;;5067539;28;20249;-57
2022/03/26 09:20:18;;;;;;;27.70;20.33;;;;;;;;;;5078171;28;20199;-59
2022/03/26 09:22:44;;;;;;;24.43;18.77;;;;;;;;;;5089860;28;20289;-58
2022/03/26 09:25:12;;;;;;;26.07;20.13;;;;;;;;;;5091696;28;20174;-57
2022/03/26 09:27:38;;;;;;;29.17;19.83;;;;;;;;;;5087605;28;20915;-56
2022/03/26 09:30:06;;;;;;;27.43;20.13;;;;;;;;;;5067379;28;20210;-60
2022/03/26 09:32:32;;;;;;;30.33;18.77;;;;;;;;;;5085804;28;20179;-59
2022/03/26 09:34:59;;;;;;;28.03;18.93;;;;;;;;;;5072342;28;20261;-59
2022/03/26 09:37:25;;;;;;;25.43;18.77;;;;;;;;;;5088084;28;20251;-58
2022/03/26 09:39:52;;;;;;;28.87;20.10;;;;;;;;;;5087418;28;20743;-61
2022/03/26 09:42:18;;;;;;;28.37;20.37;;;;;;;;;;5070894;28;20644;-58
2022/03/26 09:44:45;;;;;;;26.50;18.60;;;;;;;;;;5072484;28;20187;-59
2022/03/26 09:47:11;;;;;;;25.37;18.37;;;;;;;;;;5070926;28;20193;-59
2022/03/26 09:49:38;;;;;;;26.57;17.30;;;;;;;;;;5086851;28;20543;-57
2022/03/26 09:52:06;;;;;;;26.40;19.70;;;;;;;;;;5086951;28;20195;-58
2022/03/26 09:54:33;;;;;;;24.20;17.60;;;;;;;;;;5071534;28;20190;-57
2022/03/26 09:56:59;;;;;;;22.43;16.77;;;;;;;;;;5082241;28;20224;-60
2022/03/26 09:59:25;;;;;;;29.07;20.37;;;;;;;;;;5072565;28;20544;-55
2022/03/26 10:01:52;;;;;;;26.87;20.93;;;;;;;;;;5069172;28;20183;-56
2022/03/26 10:04:19;;;;;;;29.87;21.67;;;;;;;;;;5089513;28;20165;-55
2022/03/26 10:06:50;;;;;;;27.57;20.37;;;;;;;;;;5069801;28;21152;-55
2022/03/26 10:09:33;;;;;;;26.07;20.77;;;;;;;;;;5071755;28;20542;-55
2022/03/26 10:12:10;;;;;;;28.73;22.20;;;;;;;;;;5089642;28;20185;-57
2022/03/26 10:14:37;;;;;;;32.50;22.33;;;;;;;;;;5071741;28;20231;-55
2022/03/26 10:17:10;;;;;;;29.30;22.27;;;;;;;;;;5088092;28;20207;-55
2022/03/26 10:19:37;;;;;;;23.77;19.30;;;;;;;;;;5070625;28;20199;-57
2022/03/26 10:22:03;;;;;;;27.47;20.33;;;;;;;;;;5088351;28;20176;-55
2022/03/26 10:24:30;;;;;;;26.37;19.27;;;;;;;;;;5070600;28;20995;-57
2022/03/26 10:26:58;;;;;;;25.13;20.60;;;;;;;;;;5070849;28;20187;-55
2022/03/26 10:29:25;;;;;;;24.83;19.07;;;;;;;;;;5087273;28;20194;-56
2022/03/26 10:34:40;;;;;;;17.90;15.33;;;;;;;;;;5054550;28;20192;-54
2022/03/26 10:37:06;;;;;;;21.63;16.90;;;;;;;;;;5065879;28;20191;-55
2022/03/26 10:39:34;;;;;;;25.97;16.50;;;;;;;;;;5086971;28;20661;-55
2022/03/26 10:42:00;;;;;;;20.17;14.20;;;;;;;;;;5089487;28;20191;-56
2022/03/26 10:44:30;;;;;;;18.00;14.23;;;;;;;;;;5069110;28;20230;-57
2022/03/26 10:46:57;;;;;;;22.43;12.63;;;;;;;;;;5085734;28;20175;-56
2022/03/26 10:49:36;;;;;;;17.03;13.83;;;;;;;;;;5069339;28;20187;-57
2022/03/26 10:52:06;;;;;;;20.83;13.77;;;;;;;;;;5066241;28;20175;-57
2022/03/26 10:54:33;;;;;;;20.50;14.30;;;;;;;;;;5066801;28;20178;-57
2022/03/26 10:57:00;;;;;;;19.97;13.60;;;;;;;;;;5083285;28;20258;-56
2022/03/26 10:59:27;;;;;;;17.60;13.53;;;;;;;;;;5084336;28;20635;-57
2022/03/26 11:01:53;;;;;;;16.93;12.97;;;;;;;;;;5054883;28;20190;-57
2022/03/26 11:04:21;;;;;;;26.67;13.57;;;;;;;;;;5081366;28;20210;-59
2022/03/26 11:06:48;;;;;;;19.03;14.50;;;;;;;;;;5067362;28;20187;-57
2022/03/26 11:09:15;;;;;;;20.37;14.13;;;;;;;;;;5084006;28;20924;-57
2022/03/26 11:11:43;;;;;;;18.50;14.10;;;;;;;;;;5085249;28;20219;-56
2022/03/26 11:14:12;;;;;;;16.13;13.27;;;;;;;;;;5085872;28;20639;-58
2022/03/26 11:16:41;;;;;;;18.37;12.27;;;;;;;;;;5070302;28;20720;-57
2022/03/26 11:19:20;;;;;;;16.80;12.23;;;;;;;;;;5087269;28;20179;-57
2022/03/26 11:21:54;;;;;;;16.77;11.53;;;;;;;;;;5069292;28;20744;-58
2022/03/26 11:24:20;;;;;;;18.47;11.20;;;;;;;;;;5063151;28;20658;-58
2022/03/26 11:26:46;;;;;;;17.03;11.57;;;;;;;;;;5082170;28;20219;-58
2022/03/26 11:29:22;;;;;;;15.47;12.23;;;;;;;;;;5088915;28;20180;-56
2022/03/26 11:32:08;;;;;;;14.37;11.60;;;;;;;;;;5072039;28;20590;-57
2022/03/26 11:34:38;;;;;;;17.87;11.57;;;;;;;;;;5059695;28;20183;-57
2022/03/26 11:37:11;;;;;;;17.47;11.40;;;;;;;;;;5063740;28;20196;-57
2022/03/26 11:39:45;;;;;;;16.30;10.47;;;;;;;;;;5085095;28;20580;-58
2022/03/26 11:42:11;;;;;;;14.83;11.10;;;;;;;;;;5068057;28;20527;-57
2022/03/26 11:44:43;;;;;;;11.77;9.70;;;;;;;;;;5085359;28;20175;-57
2022/03/26 11:53:08;;;;;;;12.30;8.97;;;;;;;;;;5085736;28;20258;-58
2022/03/26 11:55:50;;;;;;;12.77;9.47;;;;;;;;;;5087042;28;20172;-58
2022/03/26 11:58:22;;;;;;;12.10;8.83;;;;;;;;;;5073021;28;20438;-58
2022/03/26 12:00:55;;;;;;;10.70;8.33;;;;;;;;;;5066485;28;20650;-58
2022/03/26 12:03:23;;;;;;;11.53;8.97;;;;;;;;;;5062497;28;20542;-60
2022/03/26 12:08:38;;;;;;;13.17;8.73;;;;;;;;;;5072809;28;20263;-59
2022/03/26 12:11:08;;;;;;;10.10;7.47;;;;;;;;;;5070484;28;20598;-58
2022/03/26 12:13:34;;;;;;;8.47;7.30;;;;;;;;;;5067969;28;20547;-58
2022/03/26 12:16:05;;;;;;;11.80;8.07;;;;;;;;;;5070153;28;20186;-58
2022/03/26 12:18:35;;;;;;;12.93;6.60;;;;;;;;;;5086423;28;20575;-59
2022/03/26 12:21:09;;;;;;;9.17;6.73;;;;;;;;;;5088149;28;20199;-60
2022/03/26 12:23:36;;;;;;;9.37;6.73;;;;;;;;;;5068003;28;20700;-62
2022/03/26 12:26:06;;;;;;;9.67;6.43;;;;;;;;;;5074442;28;20696;-59
2022/03/26 12:28:34;;;;;;;10.07;6.33;;;;;;;;;;5069590;28;20179;-60
2022/03/26 12:31:04;;;;;;;8.73;7.10;;;;;;;;;;5079153;28;20552;-60
2022/03/26 12:33:38;;;;;;;8.60;6.80;;;;;;;;;;5089694;28;20273;-61
2022/03/26 12:36:05;;;;;;;8.37;6.90;;;;;;;;;;5078337;28;20254;-60
2022/03/26 12:38:31;;;;;;;9.67;6.27;;;;;;;;;;5082546;28;20192;-62
2022/03/26 12:40:58;;;;;;;9.50;6.37;;;;;;;;;;5060415;28;20634;-60
2022/03/26 12:43:25;;;;;;;7.50;6.30;;;;;;;;;;5093142;28;20178;-61
2022/03/26 12:45:52;;;;;;;8.47;6.70;;;;;;;;;;5065018;28;20175;-62
2022/03/26 12:48:22;;;;;;;8.87;6.33;;;;;;;;;;5067336;28;20179;-58
2022/03/26 12:50:49;;;;;;;9.10;6.03;;;;;;;;;;5073961;28;20172;-58
2022/03/26 12:53:17;;;;;;;8.97;6.77;;;;;;;;;;5072965;28;20180;-60
2022/03/26 12:55:43;;;;;;;8.03;6.37;;;;;;;;;;5091302;28;20191;-58
2022/03/26 13:01:09;;;;;;;7.00;6.00;;;;;;;;;;5066643;28;20537;-59
2022/03/26 13:03:35;;;;;;;8.67;5.80;;;;;;;;;;5066869;28;21387;-57
2022/03/26 13:06:05;;;;;;;7.50;6.07;;;;;;;;;;5090539;28;20635;-58
2022/03/26 13:08:32;;;;;;;6.97;5.80;;;;;;;;;;5090534;28;20180;-57
2022/03/26 13:11:03;;;;;;;10.57;6.17;;;;;;;;;;5072380;28;20290;-59
2022/03/26 13:13:31;;;;;;;7.13;5.87;;;;;;;;;;5072057;28;20168;-60
2022/03/26 13:16:04;;;;;;;7.87;6.27;;;;;;;;;;5090227;28;20199;-59
2022/03/26 13:18:30;;;;;;;6.67;5.40;;;;;;;;;;5067863;28;20173;-57
2022/03/26 13:21:04;;;;;;;6.50;5.77;;;;;;;;;;5062983;28;20172;-57
2022/03/26 13:23:30;;;;;;;7.87;5.80;;;;;;;;;;5070012;28;20403;-60
2022/03/26 13:25:56;;;;;;;5.93;5.13;;;;;;;;;;5091233;28;20256;-58
2022/03/26 13:28:24;;;;;;;6.47;5.70;;;;;;;;;;5090775;28;20389;-60
2022/03/26 13:30:51;;;;;;;6.27;5.67;;;;;;;;;;5056965;28;20184;-58
2022/03/26 13:33:28;;;;;;;6.43;5.23;;;;;;;;;;5088178;28;20638;-58
2022/03/26 13:36:02;;;;;;;7.37;5.57;;;;;;;;;;5090917;28;20172;-58
2022/03/26 13:38:41;;;;;;;11.60;6.13;;;;;;;;;;5090689;28;20199;-57
2022/03/26 13:41:14;;;;;;;6.67;5.30;;;;;;;;;;5081501;28;20206;-56
2022/03/26 13:43:41;;;;;;;6.80;5.97;;;;;;;;;;5090305;28;20172;-57
2022/03/26 13:46:07;;;;;;;7.80;5.57;;;;;;;;;;5086645;28;20187;-59
2022/03/26 13:48:47;;;;;;;6.30;5.70;;;;;;;;;;5065874;28;20196;-57
2022/03/26 13:51:13;;;;;;;7.67;5.43;;;;;;;;;;5071412;28;20205;-61
2022/03/26 13:53:40;;;;;;;5.23;4.73;;;;;;;;;;5086916;28;20294;-58
2022/03/26 13:56:10;;;;;;;8.80;6.43;;;;;;;;;;5070939;28;20235;-57
2022/03/26 13:58:36;;;;;;;6.73;5.97;;;;;;;;;;5081660;28;20187;-58
2022/03/26 14:01:08;;;;;;;7.70;5.63;;;;;;;;;;5069842;28;20279;-58
2022/03/26 14:03:41;;;;;;;6.50;5.80;;;;;;;;;;5064199;28;20188;-57
2022/03/26 14:06:08;;;;;;;7.63;5.40;;;;;;;;;;5081006;28;20661;-58
2022/03/26 14:08:37;;;;;;;7.07;6.47;;;;;;;;;;5073907;28;20650;-58
2022/03/26 14:11:03;;;;;;;8.50;6.87;;;;;;;;;;5071168;28;20179;-58
2022/03/26 14:13:29;;;;;;;6.87;5.33;;;;;;;;;;5089885;28;20184;-58
2022/03/26 14:15:55;;;;;;;7.67;6.03;;;;;;;;;;5072665;28;20190;-59
2022/03/26 14:18:22;;;;;;;6.07;5.53;;;;;;;;;;5089673;28;20233;-57
2022/03/26 14:20:48;;;;;;;6.10;5.50;;;;;;;;;;5092946;28;20274;-56
2022/03/26 14:23:15;;;;;;;8.40;5.90;;;;;;;;;;5087424;28;20658;-59
2022/03/26 14:25:42;;;;;;;6.43;5.33;;;;;;;;;;5055715;28;20489;-56
2022/03/26 14:28:09;;;;;;;8.00;6.07;;;;;;;;;;5066023;28;20194;-57
2022/03/26 14:30:37;;;;;;;6.40;5.57;;;;;;;;;;5080805;28;20620;-57
2022/03/26 14:33:03;;;;;;;6.83;6.13;;;;;;;;;;5063810;28;20742;-56
2022/03/26 14:35:30;;;;;;;6.40;5.80;;;;;;;;;;5091189;28;20229;-59